Airport View

Enter AWOS ICAO identifier for current METAR.

ex. KFNL

KCPF 100235Z AUTO 00000KT 10SM CLR 25/20 A2994 RMK AO2

10 Jul 2020 02:35

Frequency: 119.025

Phone: 606-435-2452

Other Area AWOS: KJKL - KI35 - KPBX - KSJS

TAF AMD KJKL 100009Z 1000/1024 VRB03KT P6SM SCT100 FM101500 VRB03KT 5SM -SHRA VCTS BKN050CB